Lipton, Canada
Current Conditions -  °F | °C
As of 7:00 AM on Saturday 20 Dec 2014 (Local Time) from CYQR Reporting Station
Haze Haze  
Wind Chill:   Ceiling: 300
Heat Index: 19°   Visibility: 1.5mi
Dew Point: 19°   Wind: 17mph
Humidity: 100%   Direction: 130°SE
Pressure: 29.78"   Gusts: NA
Location:  50.9°N, 103.85°W
Report Text: CYQR 201300Z 13015KT 1 1/2SM BR OVC003 M07/M07 A2978 RMK ST8 SLP122
Loading
Personal Weather Stations






























Interactive Weather Map New forecast layout! Learn more

10-Day Weather Forecast

Advertisements
Track Severe Weather on mobile